PWSweather.com
Personal Weather Stations
Station Observations
KWABLAIN13
Ptl Weather, Blaine, WA

Ptl WeatherBlaine, WA

Lat: 48.997393, Lon: -122.748614

Elevation: 57

Station Type: Davis Advantage Pro 2

http://www.ptlnet.net

Latest ConditionsUpdated 6:29:57 AM PDT Saturday, Mar 25, 2017
Currently Today's Max Today's Min Today's Average
Temperature 44.2°F6.8°C 46.0°F7.8°C 44.2°F6.8°C 45.3°F7.4°C
Dew Point 40.6°F4.8°C 43.4°F6.3°C 40.6°F4.8°C 42.0°F5.6°C
Winds 11.0 mph SW17.7 kmh SW 18.0 mph SSE29.0 kmh SSE - 6.8 mph 10.9 kmh
Wind Gusts 16.0 mph25.7 kmh 19.0 mph30.6 kmh - -
Humidity 87% 92% 85% 88%
Pressure 30.00 in1015.9 mb 30.00 in1015.9 mb 29.94 in1013.9 mb -
Hour Temp Dew Point Humidity Winds Wind Gusts Pressure Precip Precip Rate Daily Precip Total
06:29 AM 44.2°F6.8°C 40.6°F4.8°C 87% 11.0 mph SW17.7 kmh SW 16.0 mph25.7 kmh 30.00 in1015.9 mb 0.00 in0.0 mm 0.00 in0.0 mm 0.03 in0.8 mm
06:25 AM 44.3°F6.8°C 40.7°F4.8°C 87% 12.0 mph S19.3 kmh S 15.0 mph24.1 kmh 30.00 in1015.9 mb 0.00 in0.0 mm 0.00 in0.0 mm 0.03 in0.8 mm
06:10 AM 44.2°F6.8°C 40.9°F4.9°C 88% 15.0 mph SW24.1 kmh SW 15.0 mph24.1 kmh 30.00 in1015.9 mb 0.00 in0.0 mm 0.00 in0.0 mm 0.03 in0.8 mm
06:05 AM 44.2°F6.8°C 40.9°F4.9°C 88% 6.0 mph S9.7 kmh S 12.0 mph19.3 kmh 30.00 in1015.9 mb 0.00 in0.0 mm 0.00 in0.0 mm 0.03 in0.8 mm
05:50 AM 44.2°F6.8°C 40.9°F4.9°C 88% 7.0 mph SSW11.3 kmh SSW 13.0 mph20.9 kmh 29.99 in1015.6 mb 0.00 in0.0 mm 0.00 in0.0 mm 0.03 in0.8 mm
05:45 AM 44.2°F6.8°C 40.9°F4.9°C 88% 10.0 mph SW16.1 kmh SW 12.0 mph19.3 kmh 29.99 in1015.6 mb 0.00 in0.0 mm 0.00 in0.0 mm 0.03 in0.8 mm
05:29 AM 44.2°F6.8°C 41.2°F5.1°C 89% 5.0 mph S8.0 kmh S 11.0 mph17.7 kmh 29.99 in1015.6 mb 0.00 in0.0 mm 0.00 in0.0 mm 0.03 in0.8 mm
05:25 AM 44.2°F6.8°C 41.2°F5.1°C 89% 3.0 mph SSW4.8 kmh SSW 11.0 mph17.7 kmh 29.99 in1015.6 mb 0.00 in0.0 mm 0.00 in0.0 mm 0.03 in0.8 mm
05:10 AM 44.3°F6.8°C 41.6°F5.3°C 90% 5.0 mph S8.0 kmh S 5.0 mph8.0 kmh 29.98 in1015.2 mb 0.00 in0.0 mm 0.00 in0.0 mm 0.03 in0.8 mm
05:04 AM 44.5°F6.9°C 41.8°F5.4°C 90% 7.0 mph SSW11.3 kmh SSW 7.0 mph11.3 kmh 29.98 in1015.2 mb 0.00 in0.0 mm 0.00 in0.0 mm 0.03 in0.8 mm
04:50 AM 44.6°F7.0°C 42.4°F5.8°C 92% 6.0 mph S9.7 kmh S 8.0 mph12.9 kmh 29.99 in1015.6 mb 0.00 in0.0 mm 0.00 in0.0 mm 0.03 in0.8 mm
04:45 AM 44.6°F7.0°C 42.1°F5.6°C 91% 4.0 mph SSW6.4 kmh SSW 12.0 mph19.3 kmh 29.99 in1015.6 mb 0.02 in0.5 mm 0.00 in0.0 mm 0.03 in0.8 mm
04:30 AM 44.6°F7.0°C 42.1°F5.6°C 91% 6.0 mph SSE9.7 kmh SSE 6.0 mph9.7 kmh 29.98 in1015.2 mb 0.03 in0.8 mm 0.00 in0.0 mm 0.03 in0.8 mm
04:25 AM 44.6°F7.0°C 42.1°F5.6°C 91% 9.0 mph S14.5 kmh S 11.0 mph17.7 kmh 29.97 in1014.9 mb 0.03 in0.8 mm 0.00 in0.0 mm 0.03 in0.8 mm
04:09 AM 44.9°F7.2°C 42.4°F5.8°C 91% 7.0 mph S11.3 kmh S 12.0 mph19.3 kmh 29.98 in1015.2 mb 0.03 in0.8 mm 0.00 in0.0 mm 0.03 in0.8 mm
04:04 AM 44.9°F7.2°C 42.4°F5.8°C 91% 5.0 mph S8.0 kmh S 12.0 mph19.3 kmh 29.98 in1015.2 mb 0.03 in0.8 mm 0.00 in0.0 mm 0.03 in0.8 mm
03:50 AM 45.2°F7.3°C 42.5°F5.8°C 90% 5.0 mph S8.0 kmh S 6.0 mph9.7 kmh 29.98 in1015.2 mb 0.03 in0.8 mm 0.12 in3.0 mm 0.03 in0.8 mm
03:45 AM 45.4°F7.4°C 42.4°F5.8°C 89% 6.0 mph SW9.7 kmh SW 17.0 mph27.4 kmh 29.98 in1015.2 mb 0.02 in0.5 mm 0.08 in2.0 mm 0.02 in0.5 mm
03:29 AM 45.9°F7.7°C 42.3°F5.7°C 87% 9.0 mph SSE14.5 kmh SSE 18.0 mph29.0 kmh 29.97 in1014.9 mb 0.00 in0.0 mm 0.00 in0.0 mm 0.00 in0.0 mm
03:24 AM 45.9°F7.7°C 42.0°F5.6°C 86% 6.0 mph S9.7 kmh S 13.0 mph20.9 kmh 29.97 in1014.9 mb 0.00 in0.0 mm 0.00 in0.0 mm 0.00 in0.0 mm
03:10 AM 46.0°F7.8°C 42.1°F5.6°C 86% 2.0 mph SE3.2 kmh SE 12.0 mph19.3 kmh 29.97 in1014.9 mb 0.00 in0.0 mm 0.00 in0.0 mm 0.00 in0.0 mm
03:05 AM 46.0°F7.8°C 42.1°F5.6°C 86% 7.0 mph SSE11.3 kmh SSE 12.0 mph19.3 kmh 29.97 in1014.9 mb 0.00 in0.0 mm 0.00 in0.0 mm 0.00 in0.0 mm
02:50 AM 45.9°F7.7°C 42.0°F5.6°C 86% 4.0 mph SE6.4 kmh SE 14.0 mph22.5 kmh 29.97 in1014.9 mb 0.00 in0.0 mm 0.00 in0.0 mm 0.00 in0.0 mm
02:45 AM 45.9°F7.7°C 42.0°F5.6°C 86% 5.0 mph SSE8.0 kmh SSE 14.0 mph22.5 kmh 29.97 in1014.9 mb 0.00 in0.0 mm 0.00 in0.0 mm 0.00 in0.0 mm
02:30 AM 45.9°F7.7°C 42.0°F5.6°C 86% 4.0 mph SSE6.4 kmh SSE 15.0 mph24.1 kmh 29.97 in1014.9 mb 0.00 in0.0 mm 0.00 in0.0 mm 0.00 in0.0 mm
02:25 AM 45.9°F7.7°C 42.0°F5.6°C 86% 5.0 mph SSE8.0 kmh SSE 15.0 mph24.1 kmh 29.97 in1014.9 mb 0.00 in0.0 mm 0.00 in0.0 mm 0.00 in0.0 mm
02:10 AM 45.8°F7.7°C 41.9°F5.5°C 86% 5.0 mph S8.0 kmh S 18.0 mph29.0 kmh 29.96 in1014.6 mb 0.00 in0.0 mm 0.00 in0.0 mm 0.00 in0.0 mm
02:05 AM 45.8°F7.7°C 41.6°F5.3°C 85% 9.0 mph SE14.5 kmh SE 18.0 mph29.0 kmh 29.96 in1014.6 mb 0.00 in0.0 mm 0.00 in0.0 mm 0.00 in0.0 mm
01:50 AM 46.0°F7.8°C 41.8°F5.4°C 85% 8.0 mph S12.9 kmh S 18.0 mph29.0 kmh 29.96 in1014.6 mb 0.00 in0.0 mm 0.00 in0.0 mm 0.00 in0.0 mm
01:45 AM 46.0°F7.8°C 41.8°F5.4°C 85% 18.0 mph SSE29.0 kmh SSE 18.0 mph29.0 kmh 29.96 in1014.6 mb 0.00 in0.0 mm 0.00 in0.0 mm 0.00 in0.0 mm
01:29 AM 46.0°F7.8°C 42.1°F5.6°C 86% 8.0 mph SE12.9 kmh SE 19.0 mph30.6 kmh 29.96 in1014.6 mb 0.00 in0.0 mm 0.00 in0.0 mm 0.00 in0.0 mm
01:24 AM 46.0°F7.8°C 42.1°F5.6°C 86% 14.0 mph SE22.5 kmh SE 19.0 mph30.6 kmh 29.96 in1014.6 mb 0.00 in0.0 mm 0.00 in0.0 mm 0.00 in0.0 mm
01:10 AM 45.9°F7.7°C 42.3°F5.7°C 87% 4.0 mph SE6.4 kmh SE 9.0 mph14.5 kmh 29.96 in1014.6 mb 0.00 in0.0 mm 0.00 in0.0 mm 0.00 in0.0 mm
01:05 AM 45.9°F7.7°C 42.6°F5.9°C 88% 3.0 mph S4.8 kmh S 11.0 mph17.7 kmh 29.96 in1014.6 mb 0.00 in0.0 mm 0.00 in0.0 mm 0.00 in0.0 mm
12:50 AM 45.8°F7.7°C 42.5°F5.8°C 88% 5.0 mph SSE8.0 kmh SSE 8.0 mph12.9 kmh 29.95 in1014.2 mb 0.00 in0.0 mm 0.00 in0.0 mm 0.00 in0.0 mm
12:45 AM 45.7°F7.6°C 42.4°F5.8°C 88% 5.0 mph SE8.0 kmh SE 11.0 mph17.7 kmh 29.95 in1014.2 mb 0.00 in0.0 mm 0.00 in0.0 mm 0.00 in0.0 mm
12:30 AM 45.8°F7.7°C 42.8°F6.0°C 89% 6.0 mph SE9.7 kmh SE 6.0 mph9.7 kmh 29.95 in1014.2 mb 0.00 in0.0 mm 0.00 in0.0 mm 0.00 in0.0 mm
12:25 AM 45.8°F7.7°C 43.0°F6.1°C 90% 6.0 mph SE9.7 kmh SE 11.0 mph17.7 kmh 29.95 in1014.2 mb 0.00 in0.0 mm 0.00 in0.0 mm 0.00 in0.0 mm
12:09 AM 45.8°F7.7°C 43.3°F6.3°C 91% 4.0 mph SSE6.4 kmh SSE 10.0 mph16.1 kmh 29.94 in1013.9 mb 0.00 in0.0 mm 0.00 in0.0 mm 0.00 in0.0 mm
12:05 AM 45.9°F7.7°C 43.4°F6.3°C 91% 7.0 mph SE11.3 kmh SE 8.0 mph12.9 kmh 29.94 in1013.9 mb 0.00 in0.0 mm 0.00 in0.0 mm 0.00 in0.0 mm